GCRR/ACE METAR and TAF weather

Enter ICAO airport designator
Station Type Date Time Source
GCRR METAR 2020/02/25 00:30 UTC NOAA

GCRR 250030Z 04011KT CAVOK 21/12 Q1026


Station Type Date Time Source
GCRR Decoded METAR 2020/02/25 00:30 UTC NOAA

Lanzarote / Aeropuerto, Spain (GCRR) 28-57N 013-36W 21M
Feb 24, 2020 - 07:30 PM EST / 2020.02.25 0030 UTC
Wind: from the NE (040 degrees) at 13 MPH (11 KT):0
Visibility: greater than 7 mile(s):0
Temperature: 69 F (21 C)
Dew Point: 53 F (12 C)
Relative Humidity: 56%
Pressure (altimeter): 30.30 in. Hg (1026 hPa)
ob: GCRR 250030Z 04011KT CAVOK 21/12 Q1026
cycle: 0

Station Type Date Time Source
GCRR TAF 2020/02/24 21:29 UTC NOAA

TAF GCRR 242000Z 2421/2521 36008KT 6000 NSC TX26/2513Z TN19/2506Z PROB40
TEMPO 2421/2424 4000 HZ
BECMG 2508/2510 06013KT

Example: see airport list